LIBQ  Monte Scuro Airport

Add Bookmark

Italy

Status
Operational
Latitude Longitude
39° 19' 12" N 16° 22' 47" E
39.320000 16.380000
Local (DST + 2) UTC (GMT + 1)
Nov 24, 2014 07:32 Nov 24, 2014 06:32
Sunrise-Sunset Local UTC
Begin Civil Twilight 06:17 05:17
Sunrise 06:46 05:46
Sunset 04:35 15:35
End Civil Twilight 05:04 16:04

Current Weather

METAR Observed VFR
LIBQ 240555Z 22008KT CAVOK 06/M00 Q1023 Mon, Nov 24, 2014 @ 05:55 UTC
(37 Minutes ago)
Visual Flight Rules
Wind Visibility Clouds Conditions
220° at 8 knots (15 kph) 10 km or more
  • Clear skies
  • No significant weather
Temperatures Readings Precipitation
Current Temp 6°C (43°F)
Dewpoint 0°C (32°F)
Humidity 66%
Altimeter 30.21"Hg
Sea Level Pressure 1023mb
Field Elevation 5643.04'
None Recorded

Additional weather within a 92.6km radius of LIBQ

Map ICAO Location
LICA 47.6km S (195°)
LIBC 70.2km E (121°)

24 Hour Weather History

Loading
-

24 Hour Weather Graphs

Loading
-

CheckWX.com is intended as a tool to help pilots better visualize weather data. It is not intended as a substitute for an official weather briefing obtained from a Flight Service Station. CheckWX.com does not meet the FAA requirements for an official pre-flight weather briefing. Therefore, it's important that pilots still call and obtain an official FSS pre-flight weather briefing.